Fédération internationale de Ski
Member Section
Print

OFFICIAL RESULTS

Vail / Beaver Creek (USA) 13.02.2015

FIS World Ski Championships - Men's Giant Slalom

Race codex : 0218
Valid for FIS Points : YES



Jury
TD FIS PIROLA STEFANO CHI
Referee M. WALDNER FIS
Assistant Referee E. COUDER FIS
Chief of Race G. JOHNSON USA
Technical Data
Start Altitude 3155 m.
Finish Altitude 2721 m.
Vertical Drop 434 m.
Homologation Number 8590/10/07
Run 1
Course Setter A. DOPPELHOFER GER
Number of Gates 60
Turning Gates 57
Start Time 10:15
Run 2
Course Setter D. CHASTAN FRA
Number of Gates 59
Turning Gates 56
Start Time 14:15
 
Show more info»

Competitors

Display filter form
Rank Bib FIS Code Name Year Nation Run 1 Run 2 Total Time Diff. FIS Points
 1  6  534562 LIGETY Ted  1984  USA   1:15.42  1:18.74  2:34.16     0.00
 2  3  53831 HIRSCHER Marcel  1989  AUT   1:15.18  1:19.43  2:34.61  +0.45  2.86
 3  2  194364 PINTURAULT Alexis  1991  FRA   1:15.41  1:19.63  2:35.04  +0.88  5.59
 4  7  201702 NEUREUTHER Felix  1984  GER   1:15.41  1:19.85  2:35.26  +1.10  6.99
 5  17  501324 OLSSON Matts  1988  SWE   1:15.66  1:19.73  2:35.39  +1.23  7.82
 6  12  294890 NANI Roberto  1988  ITA   1:15.36  1:20.21  2:35.57  +1.41  8.96
 7  8  193967 MUFFAT-JEANDET Victor  1989  FRA   1:16.00  1:19.71  2:35.71  +1.55  9.85
 8  21  292967 EISATH Florian  1984  ITA   1:16.64  1:19.29  2:35.93  +1.77  11.25
 9  9  534959 JITLOFF Tim  1985  USA   1:15.79  1:20.25  2:36.04  +1.88  11.95
 10  19  51007 SCHOERGHOFER Philipp  1983  AUT   1:15.85  1:20.43  2:36.28  +2.12  13.48
 11  15  511313 JANKA Carlo  1986  SUI   1:16.36  1:20.03  2:36.39  +2.23  14.18
 12  29  100558 COOK Dustin  1989  CAN   1:16.60  1:19.82  2:36.42  +2.26  14.37
 13  14  422304 KRISTOFFERSEN Henrik  1994  NOR   1:15.98  1:20.61  2:36.59  +2.43  15.45
 14  10  180534 SANDELL Marcus  1987  FIN   1:16.18  1:20.71  2:36.89  +2.73  17.35
 15  5  202462 DOPFER Fritz  1987  GER   1:16.59  1:20.42  2:37.01  +2.85  18.12
 16  25  380335 ZUBCIC Filip  1993  CRO   1:16.34  1:20.68  2:37.02  +2.86  18.18
 17  18  292120 SIMONCELLI Davide  1979  ITA   1:16.32  1:20.73  2:37.05  +2.89  18.37
 18  38  103865 PHILP Trevor  1992  CAN   1:17.62  1:19.79  2:37.41  +3.25  20.66
 19  34  531799 FORD Tommy  1989  USA   1:17.41  1:20.21  2:37.62  +3.46  22.00
 20  16  202437 LUITZ Stefan  1992  GER   1:16.42  1:21.41  2:37.83  +3.67  23.33
 21  26  180666 TORSTI Samu  1991  FIN   1:17.40  1:20.49  2:37.89  +3.73  23.71
 22  31  103676 BROWN Phil  1991  CAN   1:17.71  1:20.28  2:37.99  +3.83  24.35
 23  36  150644 KRYZL Krystof  1986  CZE   1:17.50  1:20.51  2:38.01  +3.85  24.47
 24  23  990048 BORSOTTI Giovanni  1990  ITA   1:17.54  1:20.81  2:38.35  +4.19  26.64
 25  22  511852 CAVIEZEL Gino  1992  SUI   1:17.20  1:21.21  2:38.41  +4.25  27.02
 26  33  934568 RUBIE Brennan  1991  USA   1:17.48  1:20.99  2:38.47  +4.31  27.40
 27  27  511741 ZURBRIGGEN Elia  1990  SUI   1:17.53  1:21.12  2:38.65  +4.49  28.54
 28  44  103729 READ Erik  1991  CAN   1:18.26  1:20.47  2:38.73  +4.57  29.05
 29  40  534508 CHODOUNSKY David  1984  USA   1:17.86  1:21.04  2:38.90  +4.74  30.13
 30  28  511896 MURISIER Justin  1992  SUI   1:18.11  1:20.84  2:38.95  +4.79  30.45
 31  35  422278 WINDINGSTAD Rasmus  1993  NOR   1:18.37  1:20.62  2:38.99  +4.83  30.70
 32  47  700879 ZAMPA Andreas  1993  SVK   1:19.45  1:22.01  2:41.46  +7.30  46.41
 33  51  561217 KOSI Klemen  1991  SLO   1:19.64  1:22.11  2:41.75  +7.59  48.25
 34  48  221213 RAPOSO Charlie  1996  GBR   1:19.04  1:22.97  2:42.01  +7.85  49.90
 35  59  92562 PRISADOV Stefan  1990  BUL   1:19.93  1:22.67  2:42.60  +8.44  53.65
 36  56  30149 SIMARI BIRKNER Cristian Javier  1980  ARG   1:19.43  1:23.53  2:42.96  +8.80  55.94
 37  50  550054 ZVEJNIEKS Kristaps  1992  LAT   1:20.30  1:23.07  2:43.37  +9.21  58.55
 38  54  221117 GOWER Jack  1994  GBR   1:19.73  1:23.74  2:43.47  +9.31  59.18
 39  63  410365 BARWOOD Adam  1992  NZL   1:20.48  1:23.46  2:43.94  +9.78  62.17
 40  64  320266 JUNG Dong-hyun  1988  KOR   1:20.67  1:23.79  2:44.46  +10.30  65.48
 41  68  60253 MARCHANT Armand  1997  BEL   1:20.71  1:24.41  2:45.12  +10.96  69.67
 42  71  380363 KOLEGA Elias  1996  CRO   1:20.85  1:24.82  2:45.67  +11.51  73.17
 43  69  320290 KIM Hyeon-tae  1990  KOR   1:21.58  1:25.30  2:46.88  +12.72  80.86
 44  70  680047 BENIAIDZE Alex  1991  GEO   1:22.17  1:25.60  2:47.77  +13.61  86.52
 45  78  380374 VUKELIC William  1998  CRO   1:22.78  1:25.20  2:47.98  +13.82  87.85
 46  84  710320 LAIKERT Igor  1991  BIH   1:22.31  1:26.32  2:48.63  +14.47  91.99
 47  76  460060 BARBU Alexandru  1987  ROU   1:22.46  1:27.03  2:49.49  +15.33  97.45
 48  74  250348 KRISTGEIRSSON Einar Kristinn  1994  ISL   1:23.07  1:26.53  2:49.60  +15.44  98.15
 49  72  110269 CARVALLO Nicolas  1991  CHI   1:23.31  1:26.83  2:50.14  +15.98  101.59
 50  57  320293 KYUNG Sung-hyun  1990  KOR   1:24.00  1:26.88  2:50.88  +16.72  106.29
 51  79  60088 VAN DEN BOGAERT Jeroen  1979  BEL   1:24.00  1:27.85  2:51.85  +17.69  112.46
 52  86  670037 ZAKURDAEV Igor  1987  KAZ   1:24.14  1:29.61  2:53.75  +19.59  124.53
Did not qualify for 2nd run
 53  77  240132 FARKAS Norbert  1992  HUN   1:26.11    1:26.11    
 54  85  80077 MACEDO Michel  1998  BRA   1:26.25    1:26.25    
 55  96  690694 KOVBASNYUK Ivan  1993  UKR   1:26.27    1:26.27    
 56  80  750089 DEHARI Dardan  1990  MKD   1:26.30    1:26.30    
 57  82  800013 TOLA Erjon  1986  ALB   1:26.57    1:26.57    
 58  91  270047 MC MILLAN Patrick  1991  IRL   1:26.87    1:26.87    
 59  83  170151 DYRBYE NAESTED Casper  1996  DEN   1:27.16    1:27.16    
 60  99  210040 TUKHTAEV Kamiljon  1997  UZB   1:27.85    1:27.85    
 61  89  770015 TIMOFEEV Evgeniy  1994  KGZ   1:27.90    1:27.90    
 62  98  280034 BIRAN Itamar  1998  ISR   1:28.31    1:28.31    
 62  94  340305 MOHBAT Alexandre  1995  LBN   1:28.31    1:28.31    
 64  92  310412 HADZIC Tarik  1994  MNE   1:29.80    1:29.80    
 65  88  780013 ZAVECKAS Rokas  1996  LTU   1:30.00    1:30.00    
 66  93  360036 OSCH Geoffrey  1994  LUX   1:30.78    1:30.78    
 67  95  950000 OETTL REYES Manfred  1993  PER   1:31.96    1:31.96    
 68  100  160099 PIERI Pieris  1996  CYP   1:38.40    1:38.40    
 69  87  120061 ZHANG Xiaosong  1997  CHN   1:40.44    1:40.44    
 70  97  620059 THAKUR Himanshu  1994  IND   1:42.45    1:42.45    
Did not qualify for final race
 71  26  680053 GELASHVILI Jaba  1993  GEO   1:01.51  1:00.06  2:01.57    
 72  33  320296 PARK hyuk  1990  KOR   1:02.39  59.58  2:01.97    
 73  35  680060 KOZANASHVILI Nikoloz  1995  GEO   1:02.14  1:00.25  2:02.39    
 74  21  110328 PFINGSTHORN Sebastian  1994  CHI   1:02.61  1:00.00  2:02.61    
 75  27  30388 BIRKNER DE MIGUEL Tomas  1997  ARG   1:03.09  1:00.30  2:03.39    
 76  38  250323 FINNSSON Magnus  1993  ISL   1:02.58  1:00.99  2:03.57    
 77  40  750088 RISTEVSKI Antonio  1989  MKD   1:03.22  1:00.66  2:03.88    
 78  77  710362 LOKMIC Emir  1997  BIH   1:03.59  1:00.74  2:04.33    
 79  58  710311 RUDIC Marko  1990  BIH   1:03.83  1:01.22  2:05.05    
 80  30  550061 ONSKULIS Martins  1994  LAT   1:03.68  1:01.45  2:05.13    
 81  53  230651 ANTONIOU Ioannis  1995  GRE   1:03.55  1:02.04  2:05.59    
 82  45  310415 STANISIC Strahinja  1995  SRB   1:04.10  1:01.68  2:05.78    
 83  55  550022 RODE Roberts  1987  LAT   1:04.89  1:01.71  2:06.60    
 84  83  240148 SZOLLOS Barnabas  1998  HUN   1:04.30  1:02.34  2:06.64    
 85  61  750107 BOZHINOVSKI Luka  1998  MKD   1:05.46  1:02.46  2:07.92    
 86  64  240145 BENEDEK Patrik  1997  HUN   1:06.04  1:02.08  2:08.12    
 87  52  230667 PROIOS Ioannis  1995  GRE   1:06.03  1:02.69  2:08.72    
 88  92  750106 NASHOKU Marjan  1995  MKD   1:06.33  1:03.95  2:10.28    
 89  85  270064 ARBEZ Maxime  1996  IRL   1:06.88  1:04.09  2:10.97    
 90  98  450030 MARIOTTI Alessandro  1998  SMR   1:07.41  1:03.79  2:11.20    
 91  90  340230 FENIANOS Naim  1992  LBN   1:07.52  1:04.37  2:11.89    
 92  69  550071 FOGELIS Daniels  1994  LAT   1:07.92  1:04.47  2:12.39    
 93  80  170152 JONSTRUP Jeppe  1996  DEN   1:07.68  1:05.29  2:12.97    
 94  84  80072 MACEDO Tobias  1996  BRA   1:08.17  1:05.84  2:14.01    
 95  54  120037 TIAN Yuheng  1985  CHN   1:07.48  1:06.89  2:14.37    
 96  95  740030 GHAZARYAN Arsen  1992  ARM   1:09.07  1:06.89  2:15.96    
 97  81  340154 FENIANOS Tarek  1990  LBN   1:12.34  1:07.60  2:19.94    
 98  97  210024 BABIKOV Dmitriy  1990  UZB   1:11.92  1:08.76  2:20.68    
 99  108  770012 BORISOV Ivan  1979  KGZ   1:10.95  1:10.08  2:21.03    
 100  86  960300 GOUTT Yohan Goncalves  1994  TLS   1:12.81  1:09.59  2:22.40    
 101  104  620046 KHAN Arif Mohd  1990  IND   1:16.08  1:11.13  2:27.21    
 102  96  540001 VON HOHENLOHE Hubertus  1959  MEX   1:14.25  1:12.99  2:27.24    
 103  74  620035 LAL Hira  1980  IND   1:16.54  1:13.86  2:30.40    
 104  87  740028 MANUKYAN Yura  1991  ARM   1:16.61  1:15.39  2:32.00    
 105  107  770018 GORDEEV Maksim  1995  KGZ   1:23.90  1:22.97  2:46.87    
 106  106  130034 WU Meng-che  1995  TPE   1:27.24  1:25.93  2:53.17    
 107  109  921000 ROY Jean-Pierre  1963  HAI   1:33.13  1:28.90  3:02.03    
 108  110  840003 WILLIAMS Michael Elliott  1969  JAM   1:53.82  1:48.11  3:41.93    
Did not start 2nd run
   43  202451 STRASSER Linus  1992  GER           
Did not start 1st run
   62  958402 TRAVERS Dean  1996  CAY           
Did not finish 2nd run
   75  230659 VALCAREGGI Massimiliano  1995  GRE           
   66  110324 VON APPEN Henrik  1994  CHI           
   58  40553 CHEVALIER Luc Henri  1992  AUS           
   55  150495 VRABLIK Martin  1982  CZE           
   52  40594 PERAUDO Ross  1992  AUS           
   45  400237 MEINERS Maarten  1992  NED           
   32  501458 LINDH Calle  1990  SWE           
Did not finish 1st run
   90  450026 MICHELOTTI Vincenzo Romano  1996  SMR           
   81  310410 VUKOVIC Andrija  1994  SRB           
   73  430429 BYDLINSKI Maciej  1988  POL           
   67  92720 POPOV Albert  1997  BUL           
   65  390035 SMITH Warren Cummings  1992  EST           
   61  410364 FEASEY Willis  1992  NZL           
   60  40489 LAIDLAW Luke  1992  AUS           
   53  410372 PREBBLE Nick  1993  NZL           
   49  180705 PIRINEN Eemeli  1993  FIN           
   46  40523 DEMSCHAR Dominic  1993  AUS           
   42  380318 BRIGOVIC Sebastian  1992  CRO           
   41  481327 TRIKHICHEV Pavel  1992  RUS           
   39  481103 ANDRIENKO Aleksander  1990  RUS           
   37  700830 ZAMPA Adam  1990  SVK           
   30  561244 KRANJEC Zan  1992  SLO           
   24  501017 MYHRER Andre  1983  SWE           
   20  51159 NOESIG Christoph  1985  AUT           
   13  421669 HAUGEN Leif Kristian  1987  NOR           
   11  194495 FAIVRE Mathieu  1992  FRA           
   4  191750 FANARA Thomas  1981  FRA           
   1  50625 RAICH Benjamin  1978  AUT           
Disqualified 2nd run in qualification race
   103  570012 HEATH Alexander  1978  RSA           
Disqualified 1st run in qualification race
   100  210030 JUNUSOV Anvar  1991  UZB           
   50  710353 SLJIVIC Marko  1996  BIH           
Did not start 2nd run in qualification race
   76  160097 LEFKARITIS Dinos  1995  CYP           
Did not start 1st run in qualification race
   99  310407 PESIC Mladen  1994  SRB           
   93  740021 VARDANYAN Kajik  1986  ARM           
   89  170155 SIMONSEN Lasse Kamp  1993  DEN           
   48  230147 SYKARAS Konstantinos  1984  GRE           
   44  670052 KHUBER Martin  1992  KAZ           
Did not finish 2nd run in qualification race
   94  310388 KOSIC Bojan  1990  MNE           
   91  340040 MEHANNA Jamil  1978  LBN           
   82  240149 NAGY Bence  1998  HUN           
   62  690086 FESHCHUK Rostyslav  1990  UKR           
   43  120054 ZHOU Dongjun  1989  CHN           
Did not finish 1st run in qualification race
   105  210020 EGEMBERDIEV Safar  1986  UZB           
   101  310429 PAVLOVIC Sava  1997  SRB           
   88  450025 BIZZOCCHI Lorenzo  1993  SMR           
   75  770017 TRELEVSKII Sergei  1989  KGZ           
   63  690722 MYTSAK Dmytro  1995  UKR           
   51  270055 LYNE Conor  1993  IRL           
   16  30266 GASTALDI Sebastiano  1991  ARG           
   11  110320 CLARO Eugenio  1993  CHI           

picture  Official timekeeper